Charlestown, New Hampshire
Current Conditions -  °F | °C
As of 11:54 AM on Friday 19 Dec 2014 (Local Time) from KVSF Reporting Station
Overcast Overcast  
Wind Chill: 22°   Ceiling: 2800
Heat Index: 30°   Visibility: 10mi
Dew Point: 20°   Wind: 9mph
Humidity: 66%   Direction: 280°W
Pressure: 29.98"   Gusts: NA
Location:  43.24°N, 72.42°W
Report Text: KVSF 191654Z AUTO 28008KT 10SM OVC028 M01/M07 A2998 RMK AO2 SLP161 T10111067 TSNO
Loading
Personal Weather Stations






























Interactive Weather Map New forecast layout! Learn more

10-Day Weather Forecast

Advertisements
Track Severe Weather on mobile